Latest Weather Observations for Shepparton

IDV60801

Issued at 6:22 am EDT Monday 18 November 2019 (issued every 10 minutes, with the page automatically refreshed every 10 minutes)

About weather observations | Map of weather stations | Latest weather observations for VIC | Other Formats
Station Details ID: 081125 Name: SHEPPARTON AIRPORT Lat: -36.43 Lon: 145.39 Height: 113.9 m
Data from the previous 72 hours. | See also: Recent months at Shepparton
Date/Time
EDT
Temp
°C
App
Temp
°C
Dew
Point
°C
Rel
Hum
%
Delta-T
°C
Wind Press
QNH
hPa
Press
MSL
hPa
Rain since
9am
mm
Dir  Spd
km/h
Gust
km/h
Spd
kts
Gust
kts
18/06:00am 7.0 4.6 4.5 84 1.1 SW 6 9 3 5 1018.2 1018.0 0.0
18/05:30am 7.9 5.6 5.0 82 1.3 SW 6 7 3 4 1018.0 1017.8 0.0
18/05:00am 8.2 6.0 5.1 81 1.4 SW 6 7 3 4 1018.0 1017.8 0.0
18/04:30am 8.3 6.0 4.9 79 1.5 SW 6 7 3 4 1017.9 1017.7 0.0
18/04:00am 8.6 6.3 4.6 76 1.8 SW 6 7 3 4 1017.8 1017.6 0.0
18/03:30am 9.4 7.9 4.8 73 2.1 SW 2 6 1 3 1017.8 1017.6 0.0
18/03:00am 10.0 7.7 4.8 70 2.3 SW 6 7 3 4 1018.0 1017.8 0.0
18/02:30am 10.7 8.4 4.8 67 2.7 SW 6 7 3 4 1018.3 1018.1 0.0
18/02:00am 11.2 8.3 4.9 65 2.9 SSW 9 13 5 7 1018.4 1018.2 0.0
18/01:30am 11.7 8.4 4.7 62 3.2 SSW 11 15 6 8 1018.5 1018.3 0.0
18/01:00am 12.1 8.8 4.6 60 3.4 SSW 11 13 6 7 1018.9 1018.7 0.0
18/12:30am 12.2 8.5 4.4 59 3.6 SSW 13 19 7 10 1019.3 1019.0 0.0
18/12:00am 12.7 9.0 4.2 56 3.9 S 13 17 7 9 1019.1 1018.9 0.0
 
Date/Time
EDT
Temp
°C
App
Temp
°C
Dew
Point
°C
Rel
Hum
%
Delta-T
°C
Wind Press
QNH
hPa
Press
MSL
hPa
Rain since
9am
mm
Dir  Spd
km/h
Gust
km/h
Spd
kts
Gust
kts
17/11:30pm 13.2 8.7 4.1 54 4.2 SSW 17 22 9 12 1019.4 1019.1 0.0
17/11:00pm 13.1 9.6 3.7 53 4.2 S 11 15 6 8 1019.3 1019.0 0.0
17/10:30pm 13.9 9.3 3.7 50 4.6 SSW 17 20 9 11 1019.6 1019.3 0.0
17/10:00pm 14.2 10.0 3.7 49 4.8 S 15 20 8 11 1019.6 1019.3 0.0
17/09:30pm 15.2 10.2 3.7 46 5.3 S 19 26 10 14 1019.5 1019.2 0.0
17/09:00pm 15.8 11.1 3.3 43 5.7 S 17 20 9 11 1019.3 1019.0 0.0
17/08:30pm 16.7 11.6 3.1 40 6.3 S 19 30 10 16 1019.1 1018.9 0.0
17/08:00pm 17.1 11.4 2.7 38 6.6 SSW 22 30 12 16 1019.0 1018.8 0.0
17/07:30pm 18.0 12.7 1.9 34 7.3 SSW 19 28 10 15 1018.5 1018.3 0.0
17/07:00pm 19.1 12.9 2.0 32 7.8 SSW 24 33 13 18 1018.3 1018.1 0.0
17/06:30pm 19.3 12.7 2.2 32 7.9 SSW 26 37 14 20 1017.8 1017.6 0.0
17/06:00pm 19.8 13.2 2.2 31 8.1 SSW 26 37 14 20 1017.9 1017.7 0.0
17/05:30pm 20.8 14.4 3.1 31 8.4 SW 26 39 14 21 1017.8 1017.6 0.0
17/05:00pm 20.3 13.9 3.1 32 8.1 SW 26 37 14 20 1017.5 1017.3 0.0
17/04:30pm 20.6 14.8 4.2 34 8.0 SSW 24 35 13 19 1017.6 1017.4 0.0
17/04:00pm 20.4 13.8 4.0 34 7.9 SW 28 41 15 22 1018.2 1018.0 0.0
17/03:30pm 20.7 14.3 3.4 32 8.3 SSW 26 39 14 21 1018.3 1018.1 0.0
17/03:00pm 20.7 14.7 3.4 32 8.2 SSW 24 35 13 19 1018.2 1018.0 0.0
17/02:30pm 20.1 15.0 4.2 35 7.7 SSW 20 37 11 20 1018.4 1018.2 0.0
17/02:10pm 20.9 14.3 4.0 33 8.2 S 28 46 15 25 1018.7 1018.5 0.0
17/02:00pm 19.6 13.3 3.7 35 7.6 S 26 39 14 21 1018.8 1018.6 0.0
17/01:32pm 20.0 13.4 4.1 35 7.7 S 28 46 15 25 1019.3 1019.0 0.0
17/01:30pm 19.6 13.4 4.5 37 7.3 S 26 39 14 21 1019.3 1019.0 0.0
17/01:00pm 18.5 11.5 4.3 39 6.8 SSW 30 39 16 21 1019.8 1019.5 0.0
17/12:30pm 19.5 13.6 4.0 36 7.4 S 24 37 13 20 1019.9 1019.6 0.0
17/12:00pm 19.5 13.7 4.4 37 7.3 S 24 35 13 19 1019.8 1019.5 0.0
17/11:30am 17.5 11.4 3.0 38 6.7 S 24 33 13 18 1020.0 1019.7 0.0
17/11:00am 17.9 10.8 3.4 38 6.8 SSW 30 43 16 23 1020.3 1020.0 0.0
17/10:30am 16.3 9.7 4.0 44 5.8 S 28 39 15 21 1020.3 1020.0 0.0
17/10:00am 15.4 9.6 4.5 48 5.1 SSW 24 35 13 19 1020.4 1020.1 0.0
17/09:30am 14.5 8.3 4.2 50 4.8 S 26 37 14 20 1020.4 1020.1 0.0
17/09:00am 13.8 8.1 4.9 55 4.1 S 24 35 13 19 1020.4 1020.1 0.0
17/08:30am 12.7 7.9 5.4 61 3.4 S 20 30 11 16 1020.3 1020.0 0.0
17/08:00am 11.9 7.1 5.8 66 2.9 SSW 20 30 11 16 1020.4 1020.1 0.0
17/07:30am 10.4 6.3 6.2 75 2.0 SW 17 22 9 12 1020.1 1019.8 0.0
17/07:00am 9.3 5.9 5.9 79 1.6 SW 13 19 7 10 1019.7 1019.4 0.0
17/06:30am 8.4 4.9 5.5 82 1.3 SW 13 17 7 9 1019.3 1019.0 0.0
17/06:00am 8.4 4.5 5.3 81 1.4 SSW 15 19 8 10 1018.9 1018.7 0.0
17/05:30am 8.7 4.4 5.3 79 1.5 SW 17 22 9 12 1018.6 1018.4 0.0
17/05:00am 9.0 4.7 5.2 77 1.7 SSW 17 24 9 13 1018.4 1018.2 0.0
17/04:30am 9.3 5.0 5.1 75 1.9 SSW 17 22 9 12 1018.3 1018.1 0.0
17/04:00am 9.4 5.0 5.0 74 2.0 SSW 17 20 9 11 1018.2 1018.0 0.0
17/03:30am 9.8 5.4 4.8 71 2.3 SSW 17 20 9 11 1018.1 1017.9 0.0
17/03:00am 10.2 5.7 4.4 67 2.6 SSW 17 22 9 12 1018.3 1018.1 0.0
17/02:30am 10.3 6.6 4.7 68 2.5 SSW 13 19 7 10 1018.3 1018.1 0.0
17/02:00am 11.5 6.5 4.7 63 3.1 SSW 20 28 11 15 1018.6 1018.4 0.0
17/01:30am 12.2 7.0 5.6 64 3.1 SSW 22 32 12 17 1018.8 1018.6 0.0
17/01:00am 12.2 8.2 5.1 62 3.3 SSW 15 20 8 11 1018.9 1018.7 0.0
17/12:30am 12.8 10.0 5.0 59 3.6 SSW 9 13 5 7 1018.4 1018.2 0.0
17/12:00am 13.1 10.3 5.0 58 3.8 S 9 11 5 6 1018.3 1018.1 0.0
 
Date/Time
EDT
Temp
°C
App
Temp
°C
Dew
Point
°C
Rel
Hum
%
Delta-T
°C
Wind Press
QNH
hPa
Press
MSL
hPa
Rain since
9am
mm
Dir  Spd
km/h
Gust
km/h
Spd
kts
Gust
kts
16/11:30pm 13.6 9.2 5.0 56 4.0 S 17 20 9 11 1018.6 1018.4 0.0
16/11:00pm 13.9 9.5 5.0 55 4.2 S 17 26 9 14 1018.5 1018.3 0.0
16/10:30pm 14.2 8.8 4.5 52 4.5 S 22 28 12 15 1018.4 1018.2 0.0
16/10:00pm 14.7 8.9 4.4 50 4.8 SSW 24 32 13 17 1018.3 1018.1 0.0
16/09:30pm 15.1 9.3 4.2 48 5.1 SSW 24 32 13 17 1018.0 1017.8 0.0
16/09:00pm 16.1 12.0 4.2 45 5.6 SSW 15 20 8 11 1017.6 1017.4 0.0
16/08:30pm 16.9 11.7 3.6 41 6.2 SSW 20 26 11 14 1017.3 1017.1 0.0
16/08:00pm 17.7 12.9 2.5 36 7.0 S 17 24 9 13 1016.7 1016.5 0.0
16/07:30pm 18.5 14.3 1.9 33 7.6 S 13 20 7 11 1016.1 1015.8 0.0
16/07:00pm 19.2 14.6 1.7 31 8.0 S 15 20 8 11 1016.2 1015.9 0.0
16/06:30pm 19.6 14.6 1.6 30 8.2 SSE 17 22 9 12 1016.1 1015.8 0.0
16/06:00pm 19.7 14.1 1.2 29 8.4 S 20 26 11 14 1016.4 1016.2 0.0
16/05:30pm 20.2 15.2 1.1 28 8.7 SSE 17 26 9 14 1015.6 1015.3 0.0
16/05:00pm 20.5 14.9 0.9 27 8.9 WSW 20 26 11 14 1016.3 1016.0 0.0
16/04:30pm 20.6 14.9 0.4 26 9.1 SSW 20 30 11 16 1016.4 1016.2 0.0
16/04:00pm 21.0 15.9 0.8 26 9.2 SW 17 28 9 15 1016.6 1016.4 0.0
16/03:30pm 21.0 15.3 0.8 26 9.2 WSW 20 30 11 16 1016.7 1016.5 0.0
16/03:00pm 20.1 15.0 1.0 28 8.6 WSW 17 24 9 13 1016.8 1016.6 0.0
16/02:30pm 19.8 15.8 0.8 28 8.6 WSW 11 26 6 14 1017.1 1016.9 0.0
16/02:00pm 19.0 13.4 0.1 28 8.3 WSW 19 28 10 15 1017.4 1017.2 0.0
16/01:30pm 19.1 13.0 0.2 28 8.4 WSW 22 43 12 23 1017.6 1017.4 0.0
16/01:00pm 18.3 12.1 0.0 29 8.0 SW 22 44 12 24 1017.8 1017.6 0.0
16/12:30pm 17.2 11.7 0.4 32 7.3 SSW 19 32 10 17 1017.9 1017.7 0.0
16/12:00pm 17.3 12.2 0.9 33 7.2 SW 17 30 9 16 1018.5 1018.3 0.0
16/11:30am 16.7 11.7 1.2 35 6.9 S 17 28 9 15 1018.6 1018.4 0.0
16/11:00am 16.6 11.3 1.9 37 6.6 SSW 19 28 10 15 1018.8 1018.6 0.0
16/10:30am 15.4 10.2 2.2 41 5.9 S 19 26 10 14 1018.8 1018.6 0.0
16/10:00am 14.7 8.8 1.9 42 5.6 S 22 32 12 17 1019.0 1018.8 0.0
16/09:30am 13.9 8.1 2.5 46 5.1 SSW 22 33 12 18 1018.9 1018.7 0.0
16/09:00am 13.2 7.6 3.6 52 4.3 SSW 22 37 12 20 1018.6 1018.4 0.0
16/08:30am 12.0 6.6 4.7 61 3.3 S 22 30 12 16 1018.4 1018.2 0.0
16/08:00am 11.4 6.8 5.5 67 2.7 S 19 30 10 16 1018.3 1018.1 0.0
16/07:30am 10.7 6.9 5.7 71 2.3 SSW 15 22 8 12 1017.9 1017.7 0.0
16/07:00am 9.0 5.6 5.9 81 1.4 SSW 13 17 7 9 1017.8 1017.6 0.0
16/06:30am 7.2 4.0 5.2 87 0.9 SW 11 13 6 7 1017.4 1017.2 0.0
16/06:00am 6.9 3.7 4.9 87 0.9 SSW 11 13 6 7 1017.0 1016.8 0.0
16/05:30am 7.3 4.0 4.6 83 1.2 SW 11 13 6 7 1016.9 1016.7 0.0
16/05:00am 8.4 4.5 5.2 80 1.4 SSW 15 20 8 11 1016.8 1016.6 0.0
16/04:30am 9.2 4.9 5.4 77 1.7 SSW 17 20 9 11 1016.8 1016.6 0.0
16/04:00am 9.7 5.4 5.3 74 2.0 SSW 17 22 9 12 1016.7 1016.5 0.0
16/03:30am 10.2 5.3 5.2 71 2.3 SSW 20 32 11 17 1016.7 1016.5 0.0
16/03:00am 10.3 5.9 4.7 68 2.5 SSW 17 26 9 14 1016.8 1016.6 0.0
16/02:30am 10.9 5.5 4.6 65 2.9 SSW 22 28 12 15 1016.7 1016.5 0.0
16/02:00am 11.2 6.2 4.7 64 3.0 SSW 20 32 11 17 1016.7 1016.5 0.0
16/01:30am 11.6 6.7 5.0 64 3.0 S 20 30 11 16 1016.7 1016.5 0.0
16/01:00am 12.2 6.6 5.4 63 3.2 SSW 24 35 13 19 1016.6 1016.4 0.0
16/12:30am 13.0 8.3 6.1 63 3.3 S 20 30 11 16 1016.5 1016.3 0.0
16/12:00am 13.7 8.7 6.3 61 3.6 S 22 30 12 16 1016.2 1015.9 0.0
 
Date/Time
EDT
Temp
°C
App
Temp
°C
Dew
Point
°C
Rel
Hum
%
Delta-T
°C
Wind Press
QNH
hPa
Press
MSL
hPa
Rain since
9am
mm
Dir  Spd
km/h
Gust
km/h
Spd
kts
Gust
kts
15/11:30pm 14.1 9.7 7.2 63 3.4 SSW 20 30 11 16 1015.8 1015.5 0.0
15/11:00pm 15.0 10.7 7.8 62 3.6 S 20 26 11 14 1015.4 1015.1 0.0
15/10:30pm 15.8 10.9 8.3 61 3.8 S 24 35 13 19 1015.1 1014.8 0.0
15/10:00pm 15.9 11.4 8.4 61 3.8 S 22 32 12 17 1014.7 1014.4 0.0
15/09:30pm 17.8 12.7 7.8 52 5.1 SSW 24 37 13 20 1013.9 1013.6 0.0
15/09:00pm 18.6 15.4 6.8 46 5.9 SW 13 19 7 10 1013.3 1013.0 0.0
15/08:30pm 18.9 15.2 6.4 44 6.3 WSW 15 20 8 11 1012.8 1012.5 0.0
15/08:00pm 19.6 16.1 5.6 40 6.9 WSW 13 24 7 13 1012.5 1012.2 0.0
15/07:30pm 19.7 14.8 5.0 38 7.2 SW 20 24 11 13 1012.3 1012.0 0.0
15/07:00pm 20.2 15.2 4.7 36 7.6 WSW 20 30 11 16 1011.8 1011.5 0.0
15/06:30pm 21.3 15.5 4.4 33 8.3 WSW 24 35 13 19 1011.4 1011.1 0.0
15/06:00pm 21.3 14.8 4.8 34 8.1 W 28 37 15 20 1011.1 1010.8 0.0
15/05:30pm 21.7 15.3 5.2 34 8.2 SW 28 39 15 21 1010.8 1010.5 0.0
15/05:00pm 21.2 15.3 5.6 36 7.8 WSW 26 39 14 21 1010.6 1010.3 0.0
15/04:30pm 21.6 15.9 5.1 34 8.2 WSW 24 35 13 19 1010.7 1010.4 0.0
15/04:00pm 21.6 15.6 5.1 34 8.2 WSW 26 46 14 25 1010.8 1010.5 0.0
15/03:30pm 22.8 17.0 6.1 34 8.5 W 26 39 14 21 1010.7 1010.4 0.0
15/03:00pm 21.5 15.4 5.0 34 8.2 W 26 37 14 20 1011.0 1010.7 0.0
15/02:30pm 22.3 16.2 4.8 32 8.7 W 26 43 14 23 1011.1 1010.8 0.0
15/02:00pm 22.2 17.0 5.6 34 8.4 WSW 22 39 12 21 1011.4 1011.1 0.0
15/01:30pm 20.1 14.4 5.0 37 7.4 WSW 24 39 13 21 1011.7 1011.4 0.0
15/01:00pm 19.8 15.0 5.5 39 7.1 WSW 20 32 11 17 1011.9 1011.6 0.0
15/12:30pm 19.2 13.1 4.9 39 7.0 WSW 26 37 14 20 1012.1 1011.8 0.0
15/12:00pm 19.4 14.8 5.8 41 6.7 WNW 19 32 10 17 1012.4 1012.1 0.0
15/11:30am 17.9 13.7 5.8 45 5.9 W 17 32 9 17 1012.8 1012.5 0.0
15/11:00am 16.8 12.7 6.0 49 5.3 W 17 26 9 14 1013.1 1012.8 0.0
15/10:30am 16.7 13.2 7.1 53 4.8 WNW 15 24 8 13 1013.1 1012.8 0.0
15/10:00am 16.0 12.1 7.2 56 4.4 WNW 17 26 9 14 1013.1 1012.8 0.0
15/09:30am 15.6 11.4 7.4 58 4.1 WSW 19 26 10 14 1013.0 1012.7 0.0
15/09:00am 14.4 9.9 7.0 61 3.6 WSW 20 30 11 16 1013.1 1012.8 0.0
15/08:30am 13.8 9.3 7.1 64 3.3 WSW 20 28 11 15 1012.9 1012.6 0.0
15/08:00am 13.0 8.7 7.0 67 2.9 W 19 28 10 15 1012.6 1012.3 0.0
15/07:30am 12.4 8.3 7.7 73 2.3 WNW 19 24 10 13 1012.2 1011.9 0.0
15/07:00am 11.2 7.3 6.9 75 2.1 WNW 17 26 9 14 1012.2 1011.9 0.0
15/06:30am 10.5 6.6 7.0 79 1.7 WNW 17 20 9 11 1011.9 1011.6 0.0

Other formats

Comma delimited format used in spreadsheet applications
http://www.bom.gov.au/fwo/IDV60801/IDV60801.94875.axf

JavaScript Object Notation format (JSON) in row-major order
http://www.bom.gov.au/fwo/IDV60801/IDV60801.94875.json

Data quality

Most of these data are generated automatically and are frequently updated. Quality checks on data are not normally performed. It is possible for incorrect values to appear. Refer to information at About Latest Weather Observations and please check the disclaimer before using these data.